createdAt,value
2019-05-23T00:01:05.963Z,80.55
2019-05-23T00:06:54.890Z,78.35
2019-05-23T00:09:43.273Z,75.78
2019-05-23T00:12:35.655Z,75.03
2019-05-23T00:15:29.153Z,75.03
2019-05-23T00:18:00.635Z,78.22
2019-05-23T00:20:32.854Z,76.40
2019-05-23T00:23:04.551Z,75.42
2019-05-23T00:25:35.570Z,73.40
2019-05-23T00:28:09.026Z,74.03
2019-05-23T00:30:45.286Z,75.05
2019-05-23T00:33:18.712Z,73.47
2019-05-23T00:35:49.072Z,74.37
2019-05-23T00:38:21.375Z,71.75
2019-05-23T00:40:52.832Z,72.22
2019-05-23T00:43:24.647Z,72.15
2019-05-23T00:45:55.584Z,71.53
2019-05-23T00:48:26.341Z,72.22
2019-05-23T00:50:57.155Z,69.97
2019-05-23T00:53:28.530Z,70.62
2019-05-23T00:55:59.300Z,68.83
2019-05-23T00:58:30.528Z,71.70
2019-05-23T01:01:02.565Z,70.05
2019-05-23T01:03:33.479Z,70.32
2019-05-23T01:06:04.370Z,69.62
2019-05-23T01:08:35.335Z,64.97
2019-05-23T01:11:06.565Z,67.40
2019-05-23T01:13:37.046Z,65.42
2019-05-23T01:16:08.344Z,67.95
2019-05-23T01:18:40.111Z,66.35
2019-05-23T01:21:36.869Z,66.05
2019-05-23T01:24:16.744Z,64.82
2019-05-23T01:26:47.999Z,66.50
2019-05-23T01:29:19.497Z,63.60
2019-05-23T01:31:51.837Z,61.37
2019-05-23T01:34:24.249Z,61.18
2019-05-23T01:36:55.827Z,64.62
2019-05-23T01:39:26.493Z,64.22
2019-05-23T01:41:56.780Z,61.70
2019-05-23T01:44:27.167Z,61.00
2019-05-23T01:46:57.608Z,60.80
2019-05-23T01:49:28.799Z,61.92
2019-05-23T01:51:59.410Z,63.50
2019-05-23T01:54:29.774Z,62.45
2019-05-23T01:56:59.975Z,61.33
2019-05-23T01:59:30.721Z,58.33
2019-05-23T02:02:01.083Z,60.45
2019-05-23T02:04:31.481Z,59.13
2019-05-23T02:07:03.118Z,60.85
2019-05-23T02:09:33.812Z,59.03
2019-05-23T02:12:05.544Z,58.63
2019-05-23T02:14:36.991Z,57.05
2019-05-23T02:17:09.050Z,59.35
2019-05-23T02:19:39.515Z,57.20
2019-05-23T02:22:10.542Z,59.85
2019-05-23T02:24:39.953Z,57.73
2019-05-23T02:27:09.906Z,56.30
2019-05-23T02:29:39.612Z,56.92
2019-05-23T02:32:10.578Z,56.65
2019-05-23T02:34:41.357Z,55.45
2019-05-23T02:37:20.988Z,56.65
2019-05-23T02:39:57.423Z,55.58
2019-05-23T02:42:46.420Z,54.50
2019-05-23T02:45:19.402Z,54.95
2019-05-23T02:47:49.903Z,54.08
2019-05-23T02:50:29.504Z,57.35
2019-05-23T02:53:01.068Z,53.87
2019-05-23T02:55:34.498Z,51.95
2019-05-23T02:58:31.160Z,50.05
2019-05-23T03:01:19.908Z,51.45
2019-05-23T03:03:50.476Z,54.27
2019-05-23T03:06:22.236Z,51.30
2019-05-23T03:08:52.411Z,44.93
2019-05-23T03:11:39.355Z,46.37
2019-05-23T03:14:11.707Z,48.13
2019-05-23T03:16:43.943Z,49.48
2019-05-23T03:19:38.528Z,48.83
2019-05-23T03:22:42.669Z,46.73
2019-05-23T03:26:01.852Z,49.67
2019-05-23T03:28:34.848Z,51.68
2019-05-23T03:31:28.350Z,51.20
2019-05-23T03:33:42.805Z,51.37
2019-05-23T03:36:13.164Z,51.60
2019-05-23T03:38:43.463Z,50.25
2019-05-23T03:41:14.740Z,51.20
2019-05-23T03:43:46.624Z,52.50
2019-05-23T03:46:20.190Z,50.70
2019-05-23T03:48:51.351Z,52.08
2019-05-23T03:51:22.132Z,50.45
2019-05-23T03:53:54.543Z,50.35
2019-05-23T03:56:25.147Z,49.83
2019-05-23T03:58:56.879Z,49.40
2019-05-23T04:01:45.908Z,48.73
2019-05-23T04:04:03.186Z,47.93
2019-05-23T04:06:34.198Z,49.15
2019-05-23T04:09:06.755Z,48.30
2019-05-23T04:11:38.360Z,31.95
2019-05-23T04:14:18.976Z,19.32
2019-05-23T04:17:05.712Z,18.12
2019-05-23T04:19:36.288Z,26.17
2019-05-23T04:22:08.325Z,30.60
2019-05-23T04:24:38.556Z,30.43
2019-05-23T04:27:08.668Z,31.85
2019-05-23T04:29:39.221Z,33.65
2019-05-23T04:32:10.306Z,33.40
2019-05-23T04:34:40.523Z,33.35
2019-05-23T04:37:10.741Z,32.93
2019-05-23T04:39:40.873Z,31.97
2019-05-23T04:42:11.561Z,32.30
2019-05-23T04:44:44.298Z,32.65
2019-05-23T04:47:14.540Z,32.03
2019-05-23T04:49:45.080Z,32.30
2019-05-23T04:52:15.229Z,31.70
2019-05-23T04:54:46.659Z,32.53
2019-05-23T04:57:17.986Z,32.93
2019-05-23T04:59:48.368Z,31.17
2019-05-23T05:02:26.395Z,32.98
2019-05-23T05:04:52.697Z,32.50
2019-05-23T05:07:23.176Z,31.97
2019-05-23T05:09:54.311Z,32.63
2019-05-23T05:12:24.911Z,33.00
2019-05-23T05:14:55.465Z,32.67
2019-05-23T05:17:25.885Z,31.87
2019-05-23T05:19:56.313Z,32.95
2019-05-23T05:22:26.693Z,31.27
2019-05-23T05:24:58.243Z,31.50
2019-05-23T05:27:28.904Z,32.65
2019-05-23T05:29:59.234Z,32.65
2019-05-23T05:32:44.209Z,30.82
2019-05-23T05:35:01.776Z,31.23
2019-05-23T05:37:32.276Z,32.98
2019-05-23T05:40:06.700Z,30.40
2019-05-23T05:42:38.880Z,30.80
2019-05-23T05:45:09.124Z,31.02
2019-05-23T05:47:40.381Z,31.37
2019-05-23T05:50:11.310Z,30.32
2019-05-23T05:52:41.463Z,30.30
2019-05-23T05:55:12.554Z,30.20
2019-05-23T05:57:43.641Z,29.85
2019-05-23T06:00:27.950Z,30.00
2019-05-23T06:03:04.222Z,29.87
2019-05-23T06:05:48.016Z,29.37
2019-05-23T06:08:20.177Z,29.52
2019-05-23T06:10:50.509Z,29.20
2019-05-23T06:13:20.627Z,28.75
2019-05-23T06:15:51.910Z,28.47
2019-05-23T06:18:22.046Z,28.62
2019-05-23T06:20:52.377Z,27.70
2019-05-23T06:23:23.154Z,27.00
2019-05-23T06:25:53.355Z,28.30
2019-05-23T06:28:23.490Z,28.77
2019-05-23T06:30:54.423Z,27.87
2019-05-23T06:33:24.942Z,27.77
2019-05-23T06:35:55.153Z,28.32
2019-05-23T06:38:25.917Z,27.82
2019-05-23T06:40:57.027Z,27.90
2019-05-23T06:43:27.306Z,27.95
2019-05-23T06:45:58.380Z,26.70
2019-05-23T06:48:29.684Z,26.82
2019-05-23T06:50:59.815Z,27.10
2019-05-23T06:53:30.213Z,26.37
2019-05-23T06:56:00.340Z,26.07
2019-05-23T06:58:30.692Z,26.55
2019-05-23T07:01:00.963Z,26.60
2019-05-23T07:03:42.470Z,26.23
2019-05-23T07:06:03.188Z,26.87
2019-05-23T07:08:33.309Z,25.80
2019-05-23T07:11:03.483Z,26.20
2019-05-23T07:13:34.985Z,25.40
2019-05-23T07:16:05.432Z,26.57
2019-05-23T07:18:35.536Z,25.62
2019-05-23T07:21:06.049Z,25.82
2019-05-23T07:23:36.225Z,25.85
2019-05-23T07:26:06.483Z,26.15
2019-05-23T07:28:37.191Z,25.20
2019-05-23T07:31:08.023Z,24.60
2019-05-23T07:33:38.254Z,24.07
2019-05-23T07:36:08.430Z,23.00
2019-05-23T07:38:38.632Z,24.65
2019-05-23T07:41:09.474Z,24.87
2019-05-23T07:43:39.609Z,24.05
2019-05-23T07:46:09.901Z,23.92
2019-05-23T07:48:40.122Z,24.02
2019-05-23T07:51:10.414Z,23.98
2019-05-23T07:53:47.927Z,23.18
2019-05-23T07:56:19.307Z,23.87
2019-05-23T07:58:49.573Z,23.32
2019-05-23T08:01:22.097Z,23.20
2019-05-23T08:03:52.756Z,22.95
2019-05-23T08:06:23.228Z,23.32
2019-05-23T08:08:53.976Z,22.60
2019-05-23T08:11:24.381Z,22.55
2019-05-23T08:13:55.058Z,23.40
2019-05-23T08:16:25.905Z,23.55
2019-05-23T08:18:56.121Z,23.42
2019-05-23T08:21:26.465Z,22.58
2019-05-23T08:23:56.632Z,23.40
2019-05-23T08:26:27.552Z,22.75
2019-05-23T08:29:24.176Z,21.37
2019-05-23T08:31:30.231Z,22.82
2019-05-23T08:34:01.326Z,22.00
2019-05-23T08:36:31.713Z,21.30
2019-05-23T08:39:03.717Z,21.37
2019-05-23T08:41:34.605Z,21.75
2019-05-23T08:44:05.429Z,21.27
2019-05-23T08:46:37.191Z,22.37
2019-05-23T08:49:08.541Z,22.40
2019-05-23T08:51:39.772Z,21.35
2019-05-23T08:54:10.225Z,21.02
2019-05-23T08:56:40.589Z,21.57
2019-05-23T08:59:10.957Z,21.27
2019-05-23T09:01:41.211Z,20.77
2019-05-23T09:04:11.560Z,21.50
2019-05-23T09:06:42.370Z,21.42
2019-05-23T09:09:28.411Z,20.80
2019-05-23T09:11:44.950Z,20.72
2019-05-23T09:14:15.333Z,20.43
2019-05-23T09:16:45.748Z,20.55
2019-05-23T09:19:16.109Z,20.40
2019-05-23T09:21:46.416Z,20.82
2019-05-23T09:24:16.803Z,20.48
2019-05-23T09:26:47.911Z,20.17
2019-05-23T09:29:18.167Z,20.32
2019-05-23T09:31:48.694Z,19.42
2019-05-23T09:34:19.874Z,19.23
2019-05-23T09:36:50.291Z,19.65
2019-05-23T09:39:22.265Z,20.43
2019-05-23T09:41:52.546Z,19.73
2019-05-23T09:44:22.833Z,19.73
2019-05-23T09:46:53.087Z,19.95
2019-05-23T09:49:23.838Z,18.98
2019-05-23T09:51:58.304Z,19.52
2019-05-23T09:54:26.328Z,20.60
2019-05-23T09:56:56.604Z,18.57
2019-05-23T09:59:27.048Z,19.77
2019-05-23T10:01:58.230Z,19.25
2019-05-23T10:04:28.477Z,18.25
2019-05-23T10:06:58.769Z,19.23
2019-05-23T10:09:29.087Z,18.07
2019-05-23T10:11:59.489Z,18.17
2019-05-23T10:14:32.821Z,19.25
2019-05-23T10:17:03.104Z,19.02
2019-05-23T10:19:33.475Z,19.20
2019-05-23T10:22:04.697Z,19.05
2019-05-23T10:24:34.891Z,18.87
2019-05-23T10:27:07.068Z,19.10
2019-05-23T10:29:37.454Z,19.00
2019-05-23T10:32:09.434Z,18.20
2019-05-23T10:34:39.807Z,18.25
2019-05-23T10:37:12.387Z,18.35
2019-05-23T10:39:44.701Z,17.87
2019-05-23T10:42:15.049Z,17.82
2019-05-23T10:44:45.236Z,18.48
2019-05-23T10:47:15.572Z,17.45
2019-05-23T10:49:45.888Z,17.80
2019-05-23T10:52:16.288Z,17.92
2019-05-23T10:54:46.572Z,17.35
2019-05-23T10:57:16.860Z,17.92
2019-05-23T10:59:47.195Z,17.70
2019-05-23T11:02:18.752Z,17.85
2019-05-23T11:04:49.140Z,17.62
2019-05-23T11:07:19.715Z,17.27
2019-05-23T11:09:50.107Z,16.25
2019-05-23T11:12:20.813Z,17.25
2019-05-23T11:14:52.196Z,16.97
2019-05-23T11:17:22.456Z,16.32
2019-05-23T11:19:52.725Z,17.30
2019-05-23T11:22:23.028Z,17.10
2019-05-23T11:24:54.102Z,17.15
2019-05-23T11:27:24.404Z,16.70
2019-05-23T11:29:54.571Z,16.87
2019-05-23T11:32:26.115Z,15.98
2019-05-23T11:34:56.372Z,17.50
2019-05-23T11:37:26.740Z,16.15
2019-05-23T11:39:57.092Z,16.42
2019-05-23T11:42:27.416Z,16.55
2019-05-23T11:44:57.816Z,15.70
2019-05-23T11:47:31.851Z,16.42
2019-05-23T11:50:00.359Z,15.93
2019-05-23T11:52:30.940Z,16.05
2019-05-23T11:55:01.296Z,15.93
2019-05-23T11:57:37.268Z,16.40
2019-05-23T12:00:07.173Z,15.95
2019-05-23T12:02:40.671Z,15.43
2019-05-23T12:05:15.254Z,16.37
2019-05-23T12:07:45.649Z,16.90
2019-05-23T12:10:16.513Z,15.48
2019-05-23T12:12:46.798Z,15.35
2019-05-23T12:15:22.376Z,15.58
2019-05-23T12:17:53.461Z,16.12
2019-05-23T12:20:23.789Z,16.20
2019-05-23T12:22:54.104Z,16.45
2019-05-23T12:25:24.357Z,15.32
2019-05-23T12:27:52.977Z,14.93
2019-05-23T12:30:23.512Z,15.25
2019-05-23T12:32:53.676Z,15.85
2019-05-23T12:35:23.890Z,15.88
2019-05-23T12:37:54.207Z,16.10
2019-05-23T12:40:24.496Z,15.23
2019-05-23T12:42:54.642Z,14.80
2019-05-23T12:45:25.017Z,15.23
2019-05-23T12:48:02.975Z,14.87
2019-05-23T12:50:38.624Z,15.35
2019-05-23T12:53:10.103Z,16.07
2019-05-23T12:55:40.513Z,14.90
2019-05-23T12:58:10.985Z,15.00
2019-05-23T13:00:53.880Z,15.03
2019-05-23T13:03:24.330Z,14.20
2019-05-23T13:05:54.661Z,15.53
2019-05-23T13:08:25.005Z,14.50
2019-05-23T13:10:55.240Z,14.80
2019-05-23T13:13:25.826Z,14.78
2019-05-23T13:15:56.026Z,14.25
2019-05-23T13:18:26.428Z,15.00
2019-05-23T13:20:59.569Z,14.75
2019-05-23T13:23:29.208Z,13.85
2019-05-23T13:25:59.488Z,14.58
2019-05-23T13:28:29.862Z,14.10
2019-05-23T13:31:00.388Z,14.58
2019-05-23T13:33:30.570Z,14.00
2019-05-23T13:36:00.997Z,14.30
2019-05-23T13:38:31.298Z,14.28
2019-05-23T13:41:01.612Z,13.62
2019-05-23T13:43:31.846Z,13.78
2019-05-23T13:46:02.132Z,13.35
2019-05-23T13:48:32.395Z,11.88
2019-05-23T13:51:02.712Z,12.15
2019-05-23T13:53:33.511Z,12.47
2019-05-23T13:56:03.976Z,13.08
2019-05-23T13:58:34.341Z,12.65
2019-05-23T14:01:09.323Z,12.03
2019-05-23T14:03:38.315Z,12.68
2019-05-23T14:06:08.794Z,12.68
2019-05-23T14:08:39.168Z,12.23
2019-05-23T14:11:09.970Z,11.28
2019-05-23T14:13:40.609Z,11.95
2019-05-23T14:16:11.486Z,12.47
2019-05-23T14:18:41.888Z,12.10
2019-05-23T14:21:12.240Z,12.50
2019-05-23T14:23:42.615Z,12.98
2019-05-23T14:26:13.694Z,12.18
2019-05-23T14:28:44.276Z,12.50
2019-05-23T14:31:16.220Z,11.50
2019-05-23T14:33:59.384Z,12.25
2019-05-23T14:36:51.227Z,11.30
2019-05-23T14:39:55.463Z,12.20
2019-05-23T14:43:02.936Z,12.53
2019-05-23T14:45:52.123Z,11.93
2019-05-23T14:48:41.329Z,12.40
2019-05-23T14:51:36.578Z,12.10
2019-05-23T14:54:12.825Z,12.37
2019-05-23T14:56:43.087Z,12.35
2019-05-23T14:59:13.459Z,11.90
2019-05-23T15:01:44.016Z,12.37
2019-05-23T15:04:14.641Z,18.75
2019-05-23T15:06:45.442Z,22.15
2019-05-23T15:09:15.632Z,22.20
2019-05-23T15:11:46.233Z,26.33
2019-05-23T15:14:16.458Z,21.37
2019-05-23T15:16:46.703Z,24.80
2019-05-23T15:19:36.443Z,22.55
2019-05-23T15:21:49.053Z,20.37
2019-05-23T15:24:19.492Z,20.40
2019-05-23T15:26:49.736Z,21.48
2019-05-23T15:29:20.613Z,33.53
2019-05-23T15:32:01.828Z,28.70
2019-05-23T15:34:23.518Z,24.90
2019-05-23T15:36:53.768Z,23.60
2019-05-23T15:39:24.056Z,24.30
2019-05-23T15:41:54.243Z,23.83
2019-05-23T15:44:28.642Z,23.55
2019-05-23T15:46:56.536Z,21.82
2019-05-23T15:49:27.388Z,22.07
2019-05-23T15:52:04.431Z,21.17
2019-05-23T15:54:46.101Z,21.95
2019-05-23T15:57:21.320Z,21.97
2019-05-23T16:00:10.465Z,21.35
2019-05-23T16:02:47.415Z,21.10
2019-05-23T16:05:17.810Z,20.88
2019-05-23T16:07:48.090Z,20.77
2019-05-23T16:10:18.308Z,20.50
2019-05-23T16:12:48.883Z,20.95
2019-05-23T16:15:19.116Z,21.05
2019-05-23T16:17:49.395Z,19.77
2019-05-23T16:20:19.584Z,20.75
2019-05-23T16:22:49.973Z,20.68
2019-05-23T16:25:20.241Z,20.57
2019-05-23T16:27:51.405Z,20.72
2019-05-23T16:30:21.659Z,19.52
2019-05-23T16:32:51.893Z,19.52
2019-05-23T16:35:22.781Z,19.48
2019-05-23T16:37:53.054Z,20.00
2019-05-23T16:40:23.308Z,20.48
2019-05-23T16:42:53.635Z,19.32
2019-05-23T16:45:23.891Z,19.45
2019-05-23T16:47:54.196Z,19.65
2019-05-23T16:50:24.473Z,20.23
2019-05-23T16:52:54.798Z,19.60
2019-05-23T16:55:32.561Z,19.42
2019-05-23T16:58:08.748Z,19.02
2019-05-23T17:01:00.923Z,19.60
2019-05-23T17:03:59.391Z,19.05
2019-05-23T17:06:51.278Z,19.62
2019-05-23T17:09:40.305Z,18.62
2019-05-23T17:12:25.490Z,19.77
2019-05-23T17:15:11.080Z,18.85
2019-05-23T17:18:03.600Z,19.02
2019-05-23T17:20:55.063Z,20.10
2019-05-23T17:23:56.323Z,19.27
2019-05-23T17:26:44.446Z,20.15
2019-05-23T17:29:20.840Z,19.40
2019-05-23T17:31:52.329Z,19.00
2019-05-23T17:34:22.623Z,19.50
2019-05-23T17:36:52.921Z,18.23
2019-05-23T17:39:24.152Z,18.62
2019-05-23T17:41:54.495Z,18.85
2019-05-23T17:44:24.857Z,19.35
2019-05-23T17:46:55.323Z,18.50
2019-05-23T17:49:25.652Z,18.52
2019-05-23T17:51:55.937Z,18.12
2019-05-23T17:54:26.828Z,16.23
2019-05-23T17:56:57.426Z,15.75
2019-05-23T17:59:27.801Z,15.50
2019-05-23T18:01:58.356Z,13.75
2019-05-23T18:04:28.843Z,15.15
2019-05-23T18:06:59.327Z,13.62
2019-05-23T18:09:30.892Z,12.65
2019-05-23T18:12:01.671Z,7.35
2019-05-23T18:14:31.922Z,9.45
2019-05-23T18:17:02.901Z,5.20
2019-05-23T18:19:34.034Z,7.35
2019-05-23T18:22:06.045Z,9.25
2019-05-23T18:24:36.913Z,6.70
2019-05-23T18:27:09.115Z,5.75
2019-05-23T18:29:39.479Z,7.62
2019-05-23T18:32:13.957Z,5.60
2019-05-23T18:34:44.583Z,5.20
2019-05-23T18:37:15.389Z,6.12
2019-05-23T18:39:45.672Z,11.50
2019-05-23T18:42:16.747Z,8.58
2019-05-23T18:44:47.531Z,11.73
2019-05-23T18:47:26.871Z,11.90
2019-05-23T18:49:58.508Z,10.43
2019-05-23T18:52:28.822Z,10.58
2019-05-23T18:54:59.126Z,8.75
2019-05-23T18:57:29.640Z,10.15
2019-05-23T19:00:02.541Z,9.98
2019-05-23T19:02:33.127Z,9.38
2019-05-23T19:05:03.981Z,9.90
2019-05-23T19:07:34.579Z,11.28
2019-05-23T19:10:05.251Z,12.78
2019-05-23T19:12:35.604Z,14.20
2019-05-23T19:15:06.143Z,13.18
2019-05-23T19:17:37.170Z,14.43
2019-05-23T19:20:07.626Z,15.55
2019-05-23T19:22:39.072Z,14.40
2019-05-23T19:25:10.355Z,11.43
2019-05-23T19:27:40.992Z,11.50
2019-05-23T19:30:11.850Z,11.18
2019-05-23T19:32:42.195Z,10.30
2019-05-23T19:35:12.976Z,16.67
2019-05-23T19:37:43.432Z,22.82
2019-05-23T19:40:15.533Z,42.73
2019-05-23T19:42:45.893Z,26.75
2019-05-23T19:45:16.121Z,17.90
2019-05-23T19:47:46.447Z,16.97
2019-05-23T19:50:16.745Z,15.75
2019-05-23T19:52:47.089Z,15.40
2019-05-23T19:55:19.738Z,9.75
2019-05-23T19:57:50.316Z,8.70
2019-05-23T20:00:22.990Z,49.73
2019-05-23T20:02:54.610Z,116.42
2019-05-23T20:05:31.582Z,38.60
2019-05-23T20:08:01.872Z,29.80
2019-05-23T20:10:32.353Z,35.40
2019-05-23T20:13:02.702Z,34.78
2019-05-23T20:15:33.170Z,26.42
2019-05-23T20:18:03.397Z,18.75
2019-05-23T20:20:35.174Z,21.37
2019-05-23T20:23:05.667Z,22.80
2019-05-23T20:25:36.435Z,21.97
2019-05-23T20:28:09.356Z,21.68
2019-05-23T20:30:57.263Z,20.45
2019-05-23T20:33:27.573Z,35.03
2019-05-23T20:35:57.880Z,52.38
2019-05-23T20:38:28.265Z,76.15
2019-05-23T20:40:58.641Z,53.73
2019-05-23T20:43:29.021Z,46.65
2019-05-23T20:45:59.190Z,40.43
2019-05-23T20:48:29.847Z,38.15
2019-05-23T20:51:00.152Z,37.00
2019-05-23T20:53:30.684Z,38.83
2019-05-23T20:56:01.041Z,42.15
2019-05-23T20:58:31.254Z,69.05
2019-05-23T21:01:21.275Z,77.97
2019-05-23T21:03:52.805Z,105.27
2019-05-23T21:06:23.062Z,89.40
2019-05-23T21:08:53.233Z,77.40
2019-05-23T21:11:23.493Z,53.98
2019-05-23T21:13:53.786Z,42.45
2019-05-23T21:16:24.120Z,55.85
2019-05-23T21:18:54.355Z,43.52
2019-05-23T21:21:24.625Z,42.67
2019-05-23T21:23:56.955Z,41.28
2019-05-23T21:26:26.739Z,41.65
2019-05-23T21:28:56.864Z,40.48
2019-05-23T21:31:28.169Z,40.17
2019-05-23T21:33:58.357Z,39.40
2019-05-23T21:36:28.638Z,40.60
2019-05-23T21:38:58.856Z,38.98
2019-05-23T21:41:29.009Z,38.45
2019-05-23T21:43:59.301Z,38.17
2019-05-23T21:46:30.613Z,39.45
2019-05-23T21:49:00.791Z,37.60
2019-05-23T21:51:30.965Z,37.93
2019-05-23T21:54:03.120Z,38.48
2019-05-23T21:56:33.030Z,43.68
2019-05-23T21:59:03.220Z,62.65
2019-05-23T22:01:50.880Z,65.87
2019-05-23T22:04:23.793Z,55.03
2019-05-23T22:07:07.084Z,67.20
2019-05-23T22:09:37.238Z,78.80
2019-05-23T22:12:09.253Z,62.73
2019-05-23T22:14:39.416Z,77.67
2019-05-23T22:17:09.653Z,74.05
2019-05-23T22:19:39.988Z,67.40
2019-05-23T22:22:10.118Z,67.82
2019-05-23T22:24:41.662Z,68.95
2019-05-23T22:27:11.802Z,62.17
2019-05-23T22:29:41.931Z,54.63
2019-05-23T22:32:13.715Z,62.98
2019-05-23T22:35:06.740Z,69.40
2019-05-23T22:37:36.900Z,66.28
2019-05-23T22:40:08.085Z,63.90
2019-05-23T22:42:38.282Z,67.15
2019-05-23T22:45:12.823Z,64.47
2019-05-23T22:47:43.022Z,69.47
2019-05-23T22:50:15.506Z,67.70
2019-05-23T22:52:45.660Z,62.45
2019-05-23T22:55:15.803Z,65.15
2019-05-23T22:57:49.028Z,63.10
2019-05-23T23:00:26.100Z,63.08
2019-05-23T23:02:56.338Z,63.80
2019-05-23T23:05:26.488Z,66.95
2019-05-23T23:07:56.906Z,59.25
2019-05-23T23:10:27.192Z,65.57
2019-05-23T23:12:57.347Z,64.22
2019-05-23T23:15:28.448Z,63.02
2019-05-23T23:17:58.609Z,62.53
2019-05-23T23:20:28.965Z,64.50
2019-05-23T23:22:59.180Z,64.80
2019-05-23T23:25:29.321Z,65.28
2019-05-23T23:27:59.462Z,63.25
2019-05-23T23:30:32.685Z,63.15
2019-05-23T23:33:03.136Z,60.65
2019-05-23T23:35:33.507Z,60.35
2019-05-23T23:38:03.664Z,58.25
2019-05-23T23:40:34.063Z,58.73
2019-05-23T23:43:04.330Z,58.78
2019-05-23T23:45:52.062Z,61.68
2019-05-23T23:48:40.043Z,57.60
2019-05-23T23:51:27.594Z,56.13
2019-05-23T23:54:15.129Z,55.73
2019-05-23T23:57:02.601Z,55.95
2019-05-23T23:59:31.744Z,53.80
